Time;durP1;ratioP1;P1;durP2;ratioP2;P2;SDS_P1;SDS_P2;PMS_P1;PMS_P2;Temp;Humidity;BMP_temperature;BMP_pressure;BME280_temperature;BME280_humidity;BME280_pressure;Samples;Min_cycle;Max_cycle;Signal;HPM_P1;HPM_P2
2022/03/18 00:01:40;;;;;;;40.92;25.60;;;7.40;52.10;;;;;;7361967;19;20597;-64
2022/03/18 00:04:11;;;;;;;40.00;23.38;;;7.40;52.30;;;;;;7380889;19;20011;-63
2022/03/18 00:06:42;;;;;;;42.17;23.70;;;7.40;52.00;;;;;;7356386;19;20015;-64
2022/03/18 00:09:12;;;;;;;34.80;21.67;;;7.40;50.80;;;;;;7362119;19;20494;-63
2022/03/18 00:11:42;;;;;;;36.22;22.60;;;7.40;50.60;;;;;;7360968;19;20089;-63
2022/03/18 00:14:15;;;;;;;37.25;22.98;;;7.40;49.70;;;;;;7358847;19;20070;-63
2022/03/18 00:16:45;;;;;;;30.23;20.83;;;7.40;50.60;;;;;;7360408;19;20018;-64
2022/03/18 00:19:15;;;;;;;35.58;22.55;;;7.40;50.20;;;;;;7392711;19;20018;-63
2022/03/18 00:21:45;;;;;;;36.78;21.17;;;7.40;49.50;;;;;;7370122;19;20399;-63
2022/03/18 00:24:15;;;;;;;31.15;19.67;;;7.40;49.20;;;;;;7365025;19;20015;-62
2022/03/18 00:26:45;;;;;;;31.80;19.88;;;7.40;46.00;;;;;;7365248;19;20020;-62
2022/03/18 00:29:18;;;;;;;36.05;20.77;;;7.40;46.20;;;;;;7371248;19;20011;-62
2022/03/18 00:31:48;;;;;;;31.00;19.95;;;7.40;47.50;;;;;;7368017;19;20025;-61
2022/03/18 00:34:18;;;;;;;28.60;17.90;;;7.40;46.20;;;;;;7387230;19;20018;-62
2022/03/18 00:36:47;;;;;;;32.63;19.98;;;7.40;45.90;;;;;;7365085;19;20015;-62
2022/03/18 00:39:17;;;;;;;29.08;18.55;;;7.40;46.60;;;;;;7367695;19;20078;-62
2022/03/18 00:41:48;;;;;;;29.30;17.52;;;7.40;46.50;;;;;;7369005;19;20668;-62
2022/03/18 00:44:20;;;;;;;28.17;18.83;;;7.40;45.90;;;;;;7365152;19;20090;-63
2022/03/18 00:46:50;;;;;;;29.55;18.67;;;7.40;45.60;;;;;;7363391;19;20090;-63
2022/03/18 00:52:06;;;;;;;28.80;18.67;;;7.40;44.90;;;;;;7368738;19;20054;-63
2022/03/18 00:54:39;;;;;;;27.33;16.90;;;7.30;44.30;;;;;;7365881;19;20022;-62
2022/03/18 00:57:09;;;;;;;24.85;17.00;;;7.40;44.20;;;;;;7364310;19;20455;-62
2022/03/18 00:59:42;;;;;;;27.55;17.13;;;7.30;44.10;;;;;;7367500;19;20535;-62
2022/03/18 01:02:12;;;;;;;27.58;16.55;;;7.30;44.40;;;;;;7364165;19;20011;-62
2022/03/18 01:04:42;;;;;;;26.63;16.67;;;7.30;44.80;;;;;;7367587;19;20020;-63
2022/03/18 01:07:11;;;;;;;26.92;16.42;;;7.30;44.10;;;;;;7383958;19;20105;-62
2022/03/18 01:09:41;;;;;;;25.63;16.40;;;7.30;44.10;;;;;;7367823;19;20479;-62
2022/03/18 01:12:12;;;;;;;26.92;17.02;;;7.30;44.10;;;;;;7364804;19;20475;-62
2022/03/18 01:14:45;;;;;;;26.13;16.27;;;7.30;44.00;;;;;;7366767;19;20010;-61
2022/03/18 01:17:15;;;;;;;25.58;15.88;;;7.30;44.10;;;;;;7363892;19;20670;-62
2022/03/18 01:19:45;;;;;;;26.38;16.98;;;7.30;44.10;;;;;;7368352;19;20014;-62
2022/03/18 01:22:15;;;;;;;24.65;15.90;;;7.30;42.90;;;;;;7386019;19;20747;-62
2022/03/18 01:24:45;;;;;;;23.20;14.98;;;7.30;42.70;;;;;;7365494;19;20078;-62
2022/03/18 01:27:15;;;;;;;25.77;15.95;;;7.20;42.50;;;;;;7361864;19;20057;-62
2022/03/18 01:29:48;;;;;;;26.75;15.85;;;7.30;42.50;;;;;;7365747;19;20014;-62
2022/03/18 01:32:18;;;;;;;27.20;16.70;;;7.30;42.20;;;;;;7364376;19;20017;-61
2022/03/18 01:34:48;;;;;;;24.95;15.52;;;7.30;41.80;;;;;;7366233;19;20003;-61
2022/03/18 01:37:17;;;;;;;27.27;16.45;;;7.30;41.80;;;;;;7384266;19;20018;-63
2022/03/18 01:39:47;;;;;;;24.00;15.32;;;7.20;42.40;;;;;;7367597;19;20658;-62
2022/03/18 01:42:17;;;;;;;23.10;14.85;;;7.20;42.70;;;;;;7363565;19;20070;-62
2022/03/18 01:44:50;;;;;;;21.00;14.43;;;7.20;43.10;;;;;;7366718;19;20026;-63
2022/03/18 01:47:20;;;;;;;22.27;15.40;;;7.20;41.90;;;;;;7361943;19;20512;-63
2022/03/18 01:49:50;;;;;;;21.17;14.73;;;7.20;41.90;;;;;;7368081;19;20093;-63
2022/03/18 01:52:20;;;;;;;25.17;15.93;;;7.20;42.40;;;;;;7384854;19;20077;-63
2022/03/18 01:54:50;;;;;;;21.88;13.82;;;7.20;41.60;;;;;;7364813;19;20363;-63
2022/03/18 01:57:21;;;;;;;24.48;15.07;;;7.20;41.30;;;;;;7362806;19;20015;-62
2022/03/18 01:59:54;;;;;;;25.52;14.95;;;7.20;40.00;;;;;;7368224;19;20025;-63
2022/03/18 02:02:24;;;;;;;23.20;15.32;;;7.20;40.00;;;;;;7362980;19;20459;-63
2022/03/18 02:04:55;;;;;;;22.88;14.73;;;7.20;39.30;;;;;;7364735;19;20030;-63
2022/03/18 02:07:25;;;;;;;25.45;15.73;;;7.20;38.90;;;;;;7381970;19;20077;-63
2022/03/18 02:09:55;;;;;;;22.40;14.30;;;7.20;38.90;;;;;;7367624;19;20010;-63
2022/03/18 02:12:25;;;;;;;21.50;15.07;;;7.30;38.90;;;;;;7362416;19;20014;-63
2022/03/18 02:14:57;;;;;;;22.95;13.68;;;7.20;39.30;;;;;;7365419;19;20014;-61
2022/03/18 02:17:27;;;;;;;25.05;14.80;;;7.20;38.20;;;;;;7362324;19;20007;-61
2022/03/18 02:19:57;;;;;;;24.63;14.48;;;7.20;39.10;;;;;;7366264;19;20101;-61
2022/03/18 02:22:28;;;;;;;21.50;13.88;;;7.20;38.40;;;;;;7370277;19;20988;-62
2022/03/18 02:25:00;;;;;;;23.23;14.32;;;7.20;38.30;;;;;;7385103;19;20107;-62
2022/03/18 02:27:30;;;;;;;20.85;13.45;;;7.20;38.70;;;;;;7359792;19;20014;-63
2022/03/18 02:30:01;;;;;;;19.30;13.23;;;7.10;37.10;;;;;;7365113;19;20007;-61
2022/03/18 02:32:33;;;;;;;23.27;14.10;;;7.20;37.50;;;;;;7361741;19;20021;-62
2022/03/18 02:35:03;;;;;;;23.08;14.10;;;7.10;36.60;;;;;;7363095;19;20089;-61
2022/03/18 02:37:33;;;;;;;21.98;13.38;;;7.20;36.90;;;;;;7361119;19;20090;-63
2022/03/18 02:40:06;;;;;;;22.88;13.95;;;7.10;35.60;;;;;;7386823;19;20513;-62
2022/03/18 02:42:36;;;;;;;19.98;13.68;;;7.10;35.50;;;;;;7360385;19;20066;-62
2022/03/18 02:45:08;;;;;;;19.88;12.70;;;7.20;36.30;;;;;;7364048;19;20018;-62
2022/03/18 02:47:37;;;;;;;19.38;13.40;;;7.10;35.60;;;;;;7359898;19;20021;-62
2022/03/18 02:50:09;;;;;;;19.08;12.20;;;7.10;35.50;;;;;;7365927;19;20015;-62
2022/03/18 02:52:39;;;;;;;22.10;13.40;;;7.10;35.60;;;;;;7361069;19;20006;-62
2022/03/18 02:55:12;;;;;;;17.90;11.80;;;7.10;35.70;;;;;;7384796;19;20018;-61
2022/03/18 02:57:42;;;;;;;19.38;12.75;;;7.10;35.50;;;;;;7360707;19;20041;-62
2022/03/18 03:00:13;;;;;;;21.08;12.90;;;7.10;33.20;;;;;;7366037;19;20017;-62
2022/03/18 03:02:43;;;;;;;19.92;12.55;;;7.10;33.30;;;;;;7361072;19;20479;-63
2022/03/18 03:08:02;;;;;;;21.48;12.32;;;7.10;33.60;;;;;;7361781;19;20087;-61
2022/03/18 03:10:36;;;;;;;21.10;12.20;;;7.10;34.00;;;;;;7365758;19;20018;-62
2022/03/18 03:13:10;;;;;;;17.60;11.95;;;7.00;35.40;;;;;;7382504;19;20014;-62
2022/03/18 03:15:41;;;;;;;18.52;11.68;;;7.00;35.10;;;;;;7361829;19;20752;-62
2022/03/18 03:18:11;;;;;;;18.67;11.75;;;7.00;35.50;;;;;;7361166;19;20090;-62
2022/03/18 03:20:41;;;;;;;17.90;11.80;;;7.00;35.50;;;;;;7364251;19;20060;-62
2022/03/18 03:23:11;;;;;;;16.25;11.48;;;7.00;35.60;;;;;;7360697;19;20006;-61
2022/03/18 03:25:44;;;;;;;17.38;11.48;;;7.00;34.10;;;;;;7359583;19;20102;-62
2022/03/18 03:28:14;;;;;;;19.30;11.75;;;7.00;33.70;;;;;;7382295;19;20014;-63
2022/03/18 03:30:44;;;;;;;19.23;11.10;;;7.00;33.80;;;;;;7364212;19;20019;-63
2022/03/18 03:33:18;;;;;;;19.15;12.00;;;7.00;33.10;;;;;;7360089;19;20025;-63
2022/03/18 03:35:48;;;;;;;18.38;11.68;;;7.00;33.20;;;;;;7361347;19;20110;-63
2022/03/18 03:38:18;;;;;;;18.75;11.38;;;7.00;32.80;;;;;;7361913;19;20597;-63
2022/03/18 03:40:51;;;;;;;17.63;11.50;;;7.00;33.10;;;;;;7364266;19;20482;-63
2022/03/18 03:43:21;;;;;;;17.17;11.27;;;7.00;32.90;;;;;;7381179;19;20018;-63
2022/03/18 03:45:51;;;;;;;17.27;11.82;;;7.00;33.20;;;;;;7360813;19;20021;-62
2022/03/18 03:48:21;;;;;;;16.52;10.52;;;7.00;31.70;;;;;;7360211;19;20014;-62
2022/03/18 03:50:50;;;;;;;19.90;12.18;;;6.90;32.20;;;;;;7362240;19;20007;-62
2022/03/18 03:53:20;;;;;;;17.58;11.32;;;6.90;33.70;;;;;;7359456;19;20670;-62
2022/03/18 03:55:54;;;;;;;16.88;10.70;;;7.00;33.40;;;;;;7360485;19;20098;-62
2022/03/18 03:58:23;;;;;;;20.23;11.68;;;7.00;32.90;;;;;;7383429;19;20022;-62
2022/03/18 04:00:53;;;;;;;19.20;11.43;;;7.00;32.20;;;;;;7363494;19;20014;-61
2022/03/18 04:03:23;;;;;;;18.33;11.70;;;6.90;31.70;;;;;;7359009;19;20035;-62
2022/03/18 04:35:37;;;;;;;17.02;11.07;;;6.80;32.10;;;;;;7361214;19;20082;-62
2022/03/18 04:38:07;;;;;;;17.90;11.82;;;6.80;32.00;;;;;;7360544;19;20481;-62
2022/03/18 04:40:37;;;;;;;18.45;11.85;;;6.80;32.00;;;;;;7362091;19;20370;-61
2022/03/18 04:43:07;;;;;;;16.08;10.48;;;6.80;31.90;;;;;;7379520;19;20494;-62
2022/03/18 04:45:37;;;;;;;18.10;10.30;;;6.80;32.30;;;;;;7359132;19;20091;-62
2022/03/18 04:48:07;;;;;;;17.05;10.55;;;6.80;32.10;;;;;;7358678;19;20014;-62
2022/03/18 04:50:40;;;;;;;19.20;10.95;;;6.80;31.00;;;;;;7362853;19;20018;-62
2022/03/18 04:53:10;;;;;;;16.30;10.82;;;6.80;31.70;;;;;;7357586;19;20480;-62
2022/03/18 04:55:39;;;;;;;17.90;10.90;;;6.80;32.50;;;;;;7356808;19;20485;-61
2022/03/18 04:58:09;;;;;;;19.70;10.85;;;6.70;32.10;;;;;;7381506;19;20284;-62
2022/03/18 05:00:39;;;;;;;16.90;10.90;;;6.70;32.00;;;;;;7361410;19;20021;-61
2022/03/18 05:03:10;;;;;;;16.60;10.85;;;6.70;32.50;;;;;;7360693;19;20011;-62
2022/03/18 05:05:43;;;;;;;16.52;10.32;;;6.70;31.40;;;;;;7363932;19;20035;-62
2022/03/18 05:08:12;;;;;;;18.23;10.90;;;6.70;31.00;;;;;;7365935;19;20011;-62
2022/03/18 05:10:42;;;;;;;16.65;10.63;;;6.70;31.80;;;;;;7367997;19;20021;-62
2022/03/18 05:13:13;;;;;;;16.77;10.98;;;6.70;32.10;;;;;;7383718;19;20074;-62
2022/03/18 05:15:42;;;;;;;20.77;12.50;;;6.70;31.50;;;;;;7364654;19;20010;-63
2022/03/18 05:18:12;;;;;;;20.85;11.95;;;6.70;30.80;;;;;;7365614;19;20010;-62
2022/03/18 05:20:45;;;;;;;17.98;11.05;;;6.70;31.60;;;;;;7368030;19;20011;-62
2022/03/18 05:23:15;;;;;;;19.15;11.02;;;6.70;32.00;;;;;;7364077;19;20078;-62
2022/03/18 05:25:44;;;;;;;21.15;13.05;;;6.70;32.50;;;;;;7363153;19;20212;-63
2022/03/18 05:28:17;;;;;;;19.73;12.90;;;6.70;31.40;;;;;;7386462;19;20007;-62
2022/03/18 05:30:47;;;;;;;19.23;12.27;;;6.70;31.90;;;;;;7367902;19;20078;-62
2022/03/18 05:33:19;;;;;;;21.35;12.20;;;6.70;31.90;;;;;;7362929;19;20470;-62
2022/03/18 05:35:51;;;;;;;18.30;11.95;;;6.70;32.20;;;;;;7363034;19;20085;-63
2022/03/18 05:38:21;;;;;;;19.83;12.35;;;6.70;31.60;;;;;;7366450;19;20625;-62
2022/03/18 05:40:51;;;;;;;20.90;12.63;;;6.70;31.60;;;;;;7368341;19;20860;-62
2022/03/18 05:43:21;;;;;;;24.50;13.02;;;6.70;31.00;;;;;;7383335;19;20078;-62
2022/03/18 05:45:51;;;;;;;20.10;12.20;;;6.70;30.60;;;;;;7363134;19;20018;-61
2022/03/18 05:48:21;;;;;;;19.88;11.95;;;6.70;31.00;;;;;;7363826;19;20562;-60
2022/03/18 05:50:54;;;;;;;20.83;13.20;;;6.70;31.00;;;;;;7368219;19;20006;-61
2022/03/18 05:53:24;;;;;;;20.25;12.32;;;6.70;31.20;;;;;;7363405;19;20135;-62
2022/03/18 05:58:36;;;;;;;21.63;12.85;;;6.70;31.10;;;;;;7367631;19;20070;-61
2022/03/18 06:01:06;;;;;;;22.38;12.75;;;6.70;31.00;;;;;;7389315;19;20105;-61
2022/03/18 06:03:36;;;;;;;21.95;13.02;;;6.80;31.40;;;;;;7362699;19;20014;-61
2022/03/18 06:06:12;;;;;;;22.73;14.00;;;6.70;31.20;;;;;;7362544;19;20163;-63
2022/03/18 06:14:10;;;;;;;21.52;13.45;;;6.80;30.40;;;;;;7359541;19;20387;-63
2022/03/18 06:16:40;;;;;;;24.92;13.45;;;6.80;29.90;;;;;;7360756;19;20108;-62
2022/03/18 06:19:11;;;;;;;21.88;12.68;;;6.80;30.50;;;;;;7388769;19;20018;-62
2022/03/18 06:21:43;;;;;;;26.02;14.00;;;6.70;30.00;;;;;;7364777;19;20010;-63
2022/03/18 06:24:13;;;;;;;21.77;13.82;;;6.80;30.20;;;;;;7360479;19;20015;-62
2022/03/18 06:26:43;;;;;;;21.85;13.38;;;6.80;29.90;;;;;;7359034;19;20383;-63
2022/03/18 06:29:13;;;;;;;22.80;14.27;;;6.80;30.40;;;;;;7364477;19;20020;-62
2022/03/18 06:31:43;;;;;;;29.98;14.88;;;6.90;29.90;;;;;;7364197;19;20029;-63
2022/03/18 06:34:15;;;;;;;25.23;13.98;;;6.90;29.10;;;;;;7381492;19;20018;-63
2022/03/18 06:36:48;;;;;;;23.58;13.18;;;6.90;29.10;;;;;;7358598;19;20010;-62
2022/03/18 06:39:19;;;;;;;21.63;13.45;;;7.00;29.30;;;;;;7364475;19;20015;-62
2022/03/18 06:41:49;;;;;;;23.23;14.00;;;7.00;28.30;;;;;;7363844;19;20015;-63
2022/03/18 06:44:19;;;;;;;25.75;13.63;;;7.00;27.90;;;;;;7359593;19;20009;-62
2022/03/18 06:46:49;;;;;;;24.95;14.60;;;7.10;28.90;;;;;;7358554;19;20498;-62
2022/03/18 06:49:19;;;;;;;23.45;14.23;;;7.10;28.20;;;;;;7385261;19;20735;-63
2022/03/18 06:51:51;;;;;;;22.02;13.15;;;7.10;29.20;;;;;;7363697;19;20526;-62
2022/03/18 06:54:21;;;;;;;23.75;13.68;;;7.10;29.10;;;;;;7359957;19;20021;-62
2022/03/18 06:56:51;;;;;;;23.17;13.82;;;7.10;27.80;;;;;;7358056;19;20078;-63
2022/03/18 06:59:21;;;;;;;23.35;14.68;;;7.10;27.70;;;;;;7364270;19;20022;-63
2022/03/18 07:01:53;;;;;;;24.48;14.40;;;7.10;27.70;;;;;;7365132;19;20106;-62
2022/03/18 07:04:25;;;;;;;26.10;14.30;;;7.10;28.10;;;;;;7381879;19;20045;-63
2022/03/18 07:06:58;;;;;;;23.23;14.70;;;7.20;27.80;;;;;;7358312;19;20042;-63
2022/03/18 07:09:28;;;;;;;25.50;14.32;;;7.10;27.60;;;;;;7363031;19;20011;-62
2022/03/18 07:11:58;;;;;;;25.30;13.95;;;7.20;27.80;;;;;;7364220;19;20447;-62
2022/03/18 07:14:27;;;;;;;23.88;13.95;;;7.20;26.40;;;;;;7360323;19;20018;-62
2022/03/18 07:19:40;;;;;;;25.35;15.23;;;7.30;27.00;;;;;;7363692;19;20006;-62
2022/03/18 07:22:12;;;;;;;26.60;15.40;;;7.40;26.00;;;;;;7383412;19;20014;-62
2022/03/18 07:24:42;;;;;;;28.35;15.85;;;7.30;25.50;;;;;;7361296;19;20094;-62
2022/03/18 07:27:12;;;;;;;23.70;15.20;;;7.40;27.10;;;;;;7357985;19;20098;-62
2022/03/18 07:29:48;;;;;;;24.73;15.45;;;7.40;26.20;;;;;;7362878;19;20478;-65
2022/03/18 07:32:18;;;;;;;31.58;16.52;;;7.50;25.50;;;;;;7360125;19;20007;-63
2022/03/18 07:34:48;;;;;;;27.42;16.98;;;7.50;25.00;;;;;;7360942;19;20101;-62
2022/03/18 07:37:21;;;;;;;33.67;17.48;;;7.70;23.80;;;;;;7380313;19;20021;-62
2022/03/18 07:39:51;;;;;;;32.83;18.38;;;7.60;23.30;;;;;;7363503;19;20380;-62
2022/03/18 07:42:21;;;;;;;33.97;18.83;;;7.70;22.40;;;;;;7358599;19;20010;-61
2022/03/18 07:44:50;;;;;;;30.58;17.83;;;7.70;22.10;;;;;;7361184;19;20010;-62
2022/03/18 07:47:20;;;;;;;30.02;18.42;;;7.90;21.40;;;;;;7357298;19;20006;-62
2022/03/18 07:49:50;;;;;;;31.13;16.95;;;8.00;19.80;;;;;;7361472;19;20077;-62
2022/03/18 07:52:23;;;;;;;28.70;17.08;;;7.90;19.80;;;;;;7381034;19;20358;-64
2022/03/18 07:54:58;;;;;;;30.70;17.30;;;7.90;20.90;;;;;;7354772;19;20015;-63
2022/03/18 07:57:28;;;;;;;33.72;19.23;;;7.90;20.70;;;;;;7355148;19;20110;-64
2022/03/18 07:59:57;;;;;;;32.20;18.95;;;7.90;19.20;;;;;;7361322;19;20094;-63
2022/03/18 08:02:27;;;;;;;32.55;19.13;;;8.00;19.30;;;;;;7356180;19;20093;-62
2022/03/18 08:04:57;;;;;;;33.63;19.30;;;8.10;18.70;;;;;;7359275;19;20308;-62
2022/03/18 08:07:30;;;;;;;32.03;18.67;;;8.10;18.80;;;;;;7365291;19;20026;-63
2022/03/18 08:10:00;;;;;;;34.13;21.00;;;8.10;18.10;;;;;;7382119;19;20018;-63
2022/03/18 08:12:30;;;;;;;37.45;21.80;;;8.20;18.10;;;;;;7357005;19;20013;-63
2022/03/18 08:15:01;;;;;;;39.35;22.80;;;8.30;15.70;;;;;;7361793;19;20007;-63
2022/03/18 08:17:31;;;;;;;36.40;22.30;;;8.30;15.60;;;;;;7357953;19;20109;-63
2022/03/18 08:20:03;;;;;;;38.40;21.75;;;8.50;13.00;;;;;;7362072;19;20007;-63
2022/03/18 08:22:37;;;;;;;40.25;23.48;;;8.60;11.20;;;;;;7357323;19;20015;-63
2022/03/18 08:25:09;;;;;;;38.25;23.40;;;8.60;9.70;;;;;;7382454;19;20029;-62
2022/03/18 08:27:39;;;;;;;39.28;21.83;;;8.70;8.80;;;;;;7356898;19;20077;-63
2022/03/18 08:30:11;;;;;;;39.05;23.05;;;9.00;8.80;;;;;;7360564;19;20463;-63
2022/03/18 08:32:42;;;;;;;37.67;22.27;;;8.90;7.80;;;;;;7356121;19;20130;-63
2022/03/18 08:35:12;;;;;;;38.00;21.33;;;8.90;11.00;;;;;;7358572;19;20010;-63
2022/03/18 08:40:28;;;;;;;32.30;19.45;;;8.70;10.80;;;;;;7379200;19;20384;-63
2022/03/18 08:42:59;;;;;;;31.23;19.23;;;8.80;11.10;;;;;;7385692;19;20056;-66
2022/03/18 08:45:30;;;;;;;37.35;20.98;;;8.70;11.30;;;;;;7366182;19;20093;-62
2022/03/18 08:48:00;;;;;;;32.80;18.90;;;8.80;10.10;;;;;;7365917;19;20090;-64
2022/03/18 08:50:31;;;;;;;34.80;19.60;;;8.90;10.60;;;;;;7367772;19;20471;-64
2022/03/18 08:53:09;;;;;;;30.45;18.38;;;9.00;10.10;;;;;;7363433;19;20014;-63
2022/03/18 08:55:40;;;;;;;28.60;17.13;;;9.20;9.70;;;;;;7362976;19;20017;-65
2022/03/18 08:58:11;;;;;;;32.22;19.42;;;9.10;9.70;;;;;;7386231;19;20015;-63
2022/03/18 09:00:41;;;;;;;31.88;18.63;;;9.10;9.60;;;;;;7367895;19;20397;-63
2022/03/18 09:03:11;;;;;;;30.10;19.45;;;9.20;9.10;;;;;;7362681;19;20376;-63
2022/03/18 09:05:41;;;;;;;35.28;20.10;;;9.10;8.20;;;;;;7363634;19;20010;-63
2022/03/18 09:08:14;;;;;;;37.97;20.70;;;9.40;7.00;;;;;;7365243;19;20473;-64
2022/03/18 09:10:44;;;;;;;34.72;21.58;;;9.60;4.50;;;;;;7366632;19;20014;-64
2022/03/18 09:13:14;;;;;;;37.05;21.48;;;9.80;2.60;;;;;;7384574;19;20073;-64
2022/03/18 09:15:44;;;;;;;33.42;20.23;;;9.80;1.00;;;;;;7364366;19;20014;-64
2022/03/18 09:18:14;;;;;;;36.00;20.58;;;9.90;1.00;;;;;;7364487;19;20014;-64
2022/03/18 09:20:44;;;;;;;39.38;23.13;;;9.50;1.00;;;;;;7366686;19;20014;-64
2022/03/18 09:23:16;;;;;;;34.88;19.75;;;9.40;1.00;;;;;;7363168;19;20017;-62
2022/03/18 09:25:46;;;;;;;37.08;22.70;;;9.40;1.00;;;;;;7361444;19;20020;-63
2022/03/18 09:28:16;;;;;;;38.72;22.55;;;9.40;1.00;;;;;;7387483;19;20018;-63
2022/03/18 09:30:54;;;;;;;43.10;26.08;;;9.60;1.00;;;;;;7365835;19;20010;-64
2022/03/18 09:33:24;;;;;;;39.22;22.75;;;9.80;1.00;;;;;;7360970;19;20018;-63
2022/03/18 09:35:53;;;;;;;40.63;23.15;;;9.70;1.00;;;;;;7363114;19;20094;-63
2022/03/18 09:38:26;;;;;;;37.83;22.67;;;9.80;1.00;;;;;;7364582;19;20014;-63
2022/03/18 09:40:56;;;;;;;38.55;21.05;;;10.00;1.00;;;;;;7365570;19;20106;-63
2022/03/18 09:43:37;;;;;;;35.17;21.58;;;9.60;1.00;;;;;;7361238;19;20018;-63
2022/03/18 09:46:09;;;;;;;35.10;20.40;;;9.70;1.00;;;;;;7383470;19;20367;-63
2022/03/18 09:48:59;;;;;;;35.40;21.23;;;9.70;1.00;;;;;;7364226;19;20254;-63
2022/03/18 09:51:29;;;;;;;39.40;23.42;;;9.70;1.00;;;;;;7365563;19;20090;-63
2022/03/18 09:54:21;;;;;;;35.75;21.45;;;10.00;1.00;;;;;;7358902;19;20014;-63
2022/03/18 09:56:51;;;;;;;38.53;22.63;;;10.20;1.00;;;;;;7361658;19;20074;-63
2022/03/18 09:59:22;;;;;;;45.75;24.83;;;9.90;1.00;;;;;;7366568;19;20081;-63
2022/03/18 10:01:52;;;;;;;38.70;24.35;;;10.00;1.00;;;;;;7365349;19;20010;-63
2022/03/18 10:04:22;;;;;;;41.33;24.48;;;9.90;1.00;;;;;;7382208;19;20368;-63
2022/03/18 10:06:52;;;;;;;42.45;24.92;;;9.80;1.00;;;;;;7360583;19;20022;-63
2022/03/18 10:09:29;;;;;;;43.25;24.08;;;10.20;1.00;;;;;;7365042;19;20085;-63
2022/03/18 10:12:00;;;;;;;44.92;24.60;;;10.20;1.00;;;;;;7360711;19;20026;-63
2022/03/18 10:14:30;;;;;;;41.97;24.63;;;10.50;1.00;;;;;;7362322;19;20022;-63
2022/03/18 10:17:04;;;;;;;43.78;24.98;;;10.10;1.00;;;;;;7360159;19;20089;-63
2022/03/18 10:19:34;;;;;;;42.27;24.70;;;10.50;1.00;;;;;;7366008;19;20067;-64
2022/03/18 10:22:06;;;;;;;40.38;24.27;;;10.30;1.00;;;;;;7387740;19;20018;-64
2022/03/18 10:24:39;;;;;;;39.95;24.70;;;10.50;1.00;;;;;;7361836;19;20467;-63
2022/03/18 10:27:16;;;;;;;40.90;24.98;;;10.00;1.00;;;;;;7361205;19;20041;-63
2022/03/18 10:29:49;;;;;;;43.88;25.95;;;10.20;1.00;;;;;;7365246;19;20165;-63
2022/03/18 10:32:21;;;;;;;49.15;26.75;;;9.90;1.00;;;;;;7360275;19;20412;-63
2022/03/18 10:37:43;;;;;;;43.03;26.00;;;10.30;1.00;;;;;;7359322;19;20022;-63
2022/03/18 10:40:17;;;;;;;50.75;27.65;;;10.30;1.00;;;;;;7386537;19;20088;-63
2022/03/18 10:42:59;;;;;;;39.47;24.58;;;10.50;1.00;;;;;;7360107;19;20027;-63
2022/03/18 10:45:29;;;;;;;49.25;26.40;;;10.40;1.00;;;;;;7361090;19;20011;-65
2022/03/18 10:48:12;;;;;;;46.80;24.70;;;10.50;1.00;;;;;;7361513;19;20003;-64
2022/03/18 10:50:45;;;;;;;42.03;25.15;;;10.20;1.00;;;;;;7363261;19;20010;-63
2022/03/18 10:53:18;;;;;;;42.20;24.13;;;10.30;1.00;;;;;;7360228;19;20070;-63
2022/03/18 10:55:53;;;;;;;37.95;23.63;;;10.30;1.00;;;;;;7361936;19;20003;-63
2022/03/18 10:58:24;;;;;;;38.70;23.05;;;10.40;1.00;;;;;;7384151;19;20128;-63
2022/03/18 11:00:56;;;;;;;36.13;21.65;;;10.30;1.00;;;;;;7362711;19;20078;-63
2022/03/18 11:03:28;;;;;;;38.88;22.17;;;10.20;1.00;;;;;;7358372;19;20403;-64
2022/03/18 11:06:02;;;;;;;37.05;23.10;;;10.00;1.00;;;;;;7361063;19;20010;-64
2022/03/18 11:08:40;;;;;;;40.22;25.25;;;10.10;1.00;;;;;;7364128;19;20613;-63
2022/03/18 11:11:15;;;;;;;41.13;23.65;;;9.90;1.00;;;;;;7363132;19;20122;-63
2022/03/18 11:13:53;;;;;;;38.00;23.55;;;10.00;1.00;;;;;;7357839;19;20014;-62
2022/03/18 11:16:25;;;;;;;38.85;24.15;;;10.10;1.00;;;;;;7381672;19;20024;-64
2022/03/18 11:18:56;;;;;;;42.92;25.00;;;10.10;1.00;;;;;;7363989;19;20444;-64
2022/03/18 11:21:35;;;;;;;45.63;24.17;;;10.20;1.00;;;;;;7364335;19;20007;-63
2022/03/18 11:24:07;;;;;;;40.67;24.10;;;10.50;1.00;;;;;;7357283;19;20039;-64
2022/03/18 11:26:49;;;;;;;37.85;22.75;;;10.50;1.00;;;;;;7360108;19;20120;-63
2022/03/18 11:29:23;;;;;;;36.70;21.92;;;10.00;1.00;;;;;;7363318;19;20013;-62
2022/03/18 11:32:20;;;;;;;39.63;23.75;;;10.20;1.00;;;;;;7361615;19;20501;-64
2022/03/18 11:34:55;;;;;;;40.47;23.73;;;10.40;1.00;;;;;;7355882;19;20079;-64
2022/03/18 11:37:26;;;;;;;38.08;24.20;;;10.50;1.00;;;;;;7376006;19;20027;-65
2022/03/18 11:40:30;;;;;;;40.92;24.42;;;10.70;1.00;;;;;;7359361;19;20160;-64
2022/03/18 11:43:33;;;;;;;38.60;24.73;;;10.80;1.00;;;;;;7354860;19;20074;-64
2022/03/18 11:46:25;;;;;;;38.70;24.40;;;10.60;1.00;;;;;;7355282;19;20026;-62
2022/03/18 11:48:57;;;;;;;36.97;24.95;;;10.70;1.00;;;;;;7359150;19;20010;-63
2022/03/18 11:51:30;;;;;;;39.40;23.13;;;10.80;1.00;;;;;;7357064;19;20018;-64
2022/03/18 11:54:01;;;;;;;36.90;24.60;;;10.70;1.00;;;;;;7355717;19;20094;-64
2022/03/18 11:56:45;;;;;;;40.00;23.55;;;10.90;1.00;;;;;;7360720;19;20525;-65
2022/03/18 11:59:50;;;;;;;35.90;22.98;;;10.90;1.00;;;;;;7359580;19;20014;-64
2022/03/18 12:02:20;;;;;;;36.35;23.33;;;11.00;1.00;;;;;;7357447;19;20108;-65
2022/03/18 12:04:54;;;;;;;36.60;22.05;;;11.10;1.00;;;;;;7357759;19;20015;-64
2022/03/18 12:07:28;;;;;;;36.30;23.70;;;11.00;1.00;;;;;;7375892;19;20018;-63
2022/03/18 12:10:00;;;;;;;37.50;23.00;;;10.90;1.00;;;;;;7359362;19;20402;-63
2022/03/18 12:12:34;;;;;;;33.67;22.58;;;11.00;1.00;;;;;;7356249;19;21492;-64
2022/03/18 12:15:08;;;;;;;;;;;11.00;1.00;;;;;;7364424;19;20081;-64
2022/03/18 12:17:43;;;;;;;39.88;23.60;;;11.60;1.00;;;;;;7360484;19;19915;-63
2022/03/18 12:20:18;;;;;;;35.42;23.38;;;11.70;1.00;;;;;;7366449;19;20422;-63
2022/03/18 12:22:49;;;;;;;38.00;24.20;;;11.80;1.00;;;;;;7364156;19;20431;-63
2022/03/18 12:25:21;;;;;;;37.55;23.65;;;11.80;1.00;;;;;;7383814;19;20021;-63
2022/03/18 12:27:51;;;;;;;37.67;22.88;;;12.10;1.00;;;;;;7361823;19;20015;-64
2022/03/18 12:30:26;;;;;;;33.72;22.08;;;11.80;1.00;;;;;;7364693;19;20057;-63
2022/03/18 12:32:56;;;;;;;;;;;12.00;1.00;;;;;;7363844;19;20455;-63
2022/03/18 12:35:28;;;;;;;34.13;22.35;;;12.10;1.00;;;;;;7363546;19;20393;-64
2022/03/18 12:38:08;;;;;;;34.10;22.15;;;12.00;1.00;;;;;;7358865;19;20006;-64
2022/03/18 12:40:40;;;;;;;34.63;22.05;;;11.90;1.00;;;;;;7366028;19;20017;-63
2022/03/18 12:43:11;;;;;;;31.85;20.77;;;11.80;1.00;;;;;;7386030;19;20053;-62
2022/03/18 12:45:45;;;;;;;34.13;21.20;;;11.80;1.00;;;;;;7366756;19;20010;-63
2022/03/18 12:48:18;;;;;;;30.73;20.23;;;11.80;1.00;;;;;;7363656;19;20090;-63
2022/03/18 12:50:49;;;;;;;34.20;21.48;;;11.60;1.00;;;;;;7367450;19;20637;-63
2022/03/18 12:53:22;;;;;;;32.45;19.55;;;11.60;1.00;;;;;;7362380;19;20532;-65
2022/03/18 12:55:55;;;;;;;33.05;20.25;;;11.70;1.00;;;;;;7368004;19;20526;-64
2022/03/18 12:58:26;;;;;;;34.13;21.55;;;11.50;1.00;;;;;;7386194;19;20088;-64
2022/03/18 13:01:00;;;;;;;34.17;21.40;;;11.70;1.00;;;;;;7368461;19;20011;-64
2022/03/18 13:03:34;;;;;;;32.17;21.33;;;11.70;1.00;;;;;;7362860;19;20014;-64
2022/03/18 13:06:08;;;;;;;29.45;19.75;;;11.60;1.00;;;;;;7367571;19;20010;-64
2022/03/18 13:08:38;;;;;;;27.52;19.60;;;11.60;1.00;;;;;;7361763;19;20018;-64
2022/03/18 13:11:09;;;;;;;34.53;20.25;;;11.80;1.00;;;;;;7367727;19;20010;-63
2022/03/18 13:13:46;;;;;;;31.95;21.23;;;11.70;1.00;;;;;;7360380;19;20018;-64
2022/03/18 13:16:21;;;;;;;30.83;20.15;;;12.10;1.00;;;;;;7387098;19;20053;-64
2022/03/18 13:18:53;;;;;;;34.63;19.92;;;11.80;1.00;;;;;;7361925;19;20018;-64
2022/03/18 13:21:23;;;;;;;32.53;20.70;;;11.90;1.00;;;;;;7366560;19;20015;-64
2022/03/18 13:23:54;;;;;;;34.10;22.30;;;11.60;1.00;;;;;;7361345;19;20021;-64
2022/03/18 13:26:27;;;;;;;30.48;19.77;;;11.80;1.00;;;;;;7367825;19;20103;-64
2022/03/18 13:28:57;;;;;;;31.65;21.52;;;11.80;1.00;;;;;;7360500;19;20040;-64
2022/03/18 13:34:13;;;;;;;30.10;19.73;;;12.20;1.00;;;;;;7381731;19;20014;-64
2022/03/18 13:36:45;;;;;;;30.08;20.50;;;12.40;1.00;;;;;;7367261;19;20721;-65
2022/03/18 13:39:24;;;;;;;30.27;21.10;;;12.40;1.00;;;;;;7360039;19;20021;-64
2022/03/18 13:41:55;;;;;;;32.75;20.15;;;12.30;1.00;;;;;;7367068;19;20006;-64
2022/03/18 13:44:27;;;;;;;30.10;20.73;;;12.30;1.00;;;;;;7362046;19;20090;-65
2022/03/18 13:47:04;;;;;;;29.25;20.15;;;12.40;1.00;;;;;;7364168;19;20037;-64
2022/03/18 13:49:35;;;;;;;29.08;20.05;;;12.10;1.00;;;;;;7366687;19;20014;-66
2022/03/18 13:52:07;;;;;;;30.02;19.33;;;12.20;1.00;;;;;;7387078;19;20018;-64
2022/03/18 13:54:45;;;;;;;29.13;18.50;;;12.10;1.00;;;;;;7363957;19;20334;-64
2022/03/18 13:57:15;;;;;;;31.48;19.45;;;12.00;1.00;;;;;;7360089;19;20014;-65